createdAt,value
2023-01-12T00:02:19.259Z,100607.20
2023-01-12T00:04:46.449Z,100604.73
2023-01-12T00:07:13.945Z,100611.20
2023-01-12T00:09:40.968Z,100614.04
2023-01-12T00:12:09.686Z,100617.41
2023-01-12T00:14:37.444Z,100622.48
2023-01-12T00:17:04.494Z,100624.73
2023-01-12T00:19:31.761Z,100626.00
2023-01-12T00:22:00.224Z,100630.73
2023-01-12T00:24:31.600Z,100630.82
2023-01-12T00:26:59.788Z,100636.64
2023-01-12T00:29:27.028Z,100637.91
2023-01-12T00:31:54.718Z,100632.39
2023-01-12T00:34:21.607Z,100635.42
2023-01-12T00:36:48.625Z,100639.56
2023-01-12T00:39:15.794Z,100637.08
2023-01-12T00:42:01.430Z,100636.01
2023-01-12T00:44:46.951Z,100635.77
2023-01-12T00:47:14.114Z,100635.52
2023-01-12T00:49:43.892Z,100639.61
2023-01-12T00:52:15.620Z,100632.02
2023-01-12T00:54:52.428Z,100633.88
2023-01-12T00:57:19.521Z,100627.29
2023-01-12T00:59:46.750Z,100623.61
2023-01-12T01:02:13.838Z,100618.95
2023-01-12T01:04:40.837Z,100616.14
2023-01-12T01:07:07.762Z,100621.42
2023-01-12T01:09:34.699Z,100622.42
2023-01-12T01:12:01.701Z,100615.35
2023-01-12T01:14:28.596Z,100617.67
2023-01-12T01:16:55.626Z,100618.84
2023-01-12T01:19:23.011Z,100624.52
2023-01-12T01:21:50.073Z,100626.30
2023-01-12T01:24:17.237Z,100628.55
2023-01-12T01:26:44.311Z,100632.36
2023-01-12T01:29:11.529Z,100636.09
2023-01-12T01:31:38.530Z,100642.45
2023-01-12T01:34:05.570Z,100648.40
2023-01-12T01:36:32.899Z,100648.02
2023-01-12T01:38:59.938Z,100643.04
2023-01-12T01:41:29.626Z,100646.04
2023-01-12T01:44:01.543Z,100643.63
2023-01-12T01:46:48.224Z,100649.69
2023-01-12T01:49:24.592Z,100657.77
2023-01-12T01:51:53.577Z,100660.58
2023-01-12T01:54:20.805Z,100666.44
2023-01-12T01:56:47.932Z,100663.39
2023-01-12T01:59:19.540Z,100670.65
2023-01-12T02:01:46.687Z,100666.76
2023-01-12T02:04:14.063Z,100663.16
2023-01-12T02:06:41.094Z,100660.09
2023-01-12T02:09:18.666Z,100659.48
2023-01-12T02:12:05.074Z,100658.89
2023-01-12T02:14:52.197Z,100664.83
2023-01-12T02:17:50.030Z,100662.73
2023-01-12T02:20:40.120Z,100665.34
2023-01-12T02:23:22.517Z,100665.59
2023-01-12T02:26:27.019Z,100661.09
2023-01-12T02:29:06.245Z,100651.03
2023-01-12T02:31:52.037Z,100653.70
2023-01-12T02:34:24.697Z,100657.13
2023-01-12T02:37:10.669Z,100655.54
2023-01-12T02:40:09.202Z,100657.07
2023-01-12T02:42:47.647Z,100651.09
2023-01-12T02:45:33.583Z,100651.27
2023-01-12T02:48:05.921Z,100650.46
2023-01-12T02:50:52.188Z,100651.31
2023-01-12T02:53:28.022Z,100648.80
2023-01-12T02:55:54.895Z,100644.23
2023-01-12T02:58:22.803Z,100640.48
2023-01-12T03:00:51.642Z,100642.24
2023-01-12T03:03:19.473Z,100645.17
2023-01-12T03:05:47.832Z,100643.28
2023-01-12T03:08:21.290Z,100647.90
2023-01-12T03:11:06.895Z,100637.84
2023-01-12T03:13:36.190Z,100637.96
2023-01-12T03:16:03.967Z,100634.08
2023-01-12T03:18:39.597Z,100635.52
2023-01-12T03:21:09.837Z,100626.27
2023-01-12T03:23:43.612Z,100619.29
2023-01-12T03:26:11.777Z,100610.13
2023-01-12T03:28:39.803Z,100604.69
2023-01-12T03:31:11.362Z,100611.41
2023-01-12T03:33:39.923Z,100601.88
2023-01-12T03:36:17.437Z,100591.62
2023-01-12T03:39:02.954Z,100593.14
2023-01-12T03:42:08.905Z,100597.67
2023-01-12T03:44:42.071Z,100599.70
2023-01-12T03:47:12.148Z,100599.29
2023-01-12T03:49:48.134Z,100598.10
2023-01-12T03:52:15.065Z,100600.36
2023-01-12T03:54:41.933Z,100600.17
2023-01-12T03:57:09.166Z,100599.09
2023-01-12T03:59:36.131Z,100596.68
2023-01-12T04:02:03.573Z,100591.46
2023-01-12T04:04:30.491Z,100587.74
2023-01-12T04:06:57.559Z,100587.00
2023-01-12T04:09:26.023Z,100590.42
2023-01-12T04:12:11.270Z,100589.65
2023-01-12T04:14:47.787Z,100583.02
2023-01-12T04:17:15.207Z,100583.54
2023-01-12T04:19:42.240Z,100584.52
2023-01-12T04:22:29.468Z,100579.30
2023-01-12T04:24:56.667Z,100581.85
2023-01-12T04:27:23.625Z,100576.41
2023-01-12T04:29:50.478Z,100573.20
2023-01-12T04:32:17.414Z,100570.07
2023-01-12T04:34:45.175Z,100571.93
2023-01-12T04:37:12.219Z,100563.02
2023-01-12T04:39:39.165Z,100560.65
2023-01-12T04:42:26.083Z,100560.56
2023-01-12T04:44:53.068Z,100562.48
2023-01-12T04:47:20.194Z,100560.29
2023-01-12T04:49:47.213Z,100562.39
2023-01-12T04:52:14.251Z,100562.52
2023-01-12T04:54:41.378Z,100563.02
2023-01-12T04:57:08.413Z,100561.21
2023-01-12T04:59:35.571Z,100561.51
2023-01-12T05:02:02.627Z,100563.77
2023-01-12T05:04:29.562Z,100556.23
2023-01-12T05:06:56.491Z,100557.20
2023-01-12T05:09:42.164Z,100564.31
2023-01-12T05:12:09.100Z,100572.70
2023-01-12T05:14:36.013Z,100581.10
2023-01-12T05:17:03.008Z,100584.40
2023-01-12T05:19:29.901Z,100584.07
2023-01-12T05:21:56.812Z,100572.23
2023-01-12T05:24:23.694Z,100565.51
2023-01-12T05:26:50.722Z,100565.00
2023-01-12T05:29:17.597Z,100565.22
2023-01-12T05:31:44.505Z,100563.31
2023-01-12T05:34:11.489Z,100561.34
2023-01-12T05:36:38.398Z,100562.03
2023-01-12T05:39:05.705Z,100556.55
2023-01-12T05:41:32.586Z,100562.61
2023-01-12T05:43:59.508Z,100557.54
2023-01-12T05:46:28.293Z,100556.27
2023-01-12T05:48:55.998Z,100558.15
2023-01-12T05:51:23.677Z,100562.50
2023-01-12T05:53:50.599Z,100558.03
2023-01-12T05:56:28.060Z,100562.02
2023-01-12T05:58:56.449Z,100563.61
2023-01-12T06:01:23.476Z,100564.90
2023-01-12T06:03:55.010Z,100561.27
2023-01-12T06:06:22.928Z,100567.67
2023-01-12T06:08:52.453Z,100570.67
2023-01-12T06:11:38.677Z,100575.91
2023-01-12T06:14:06.331Z,100576.29
2023-01-12T06:16:33.395Z,100569.76
2023-01-12T06:19:01.224Z,100571.86
2023-01-12T06:21:28.300Z,100567.67
2023-01-12T06:23:55.180Z,100560.03
2023-01-12T06:26:22.022Z,100559.47
2023-01-12T06:28:48.876Z,100554.41
2023-01-12T06:31:15.844Z,100560.80
2023-01-12T06:33:42.805Z,100560.50
2023-01-12T06:36:10.143Z,100561.48
2023-01-12T06:38:40.334Z,100562.70
2023-01-12T06:41:30.482Z,100563.02
2023-01-12T06:43:57.683Z,100564.43
2023-01-12T06:46:26.001Z,100562.43
2023-01-12T06:48:55.533Z,100559.99
2023-01-12T06:51:22.376Z,100554.46
2023-01-12T06:53:49.228Z,100552.19
2023-01-12T06:56:16.136Z,100555.05
2023-01-12T06:58:43.831Z,100549.48
2023-01-12T07:01:10.847Z,100550.54
2023-01-12T07:03:37.860Z,100552.95
2023-01-12T07:06:04.934Z,100556.67
2023-01-12T07:08:32.178Z,100566.76
2023-01-12T07:11:08.206Z,100570.71
2023-01-12T07:13:35.190Z,100574.90
2023-01-12T07:16:02.286Z,100574.56
2023-01-12T07:18:30.212Z,100578.47
2023-01-12T07:20:57.169Z,100576.52
2023-01-12T07:23:24.137Z,100575.09
2023-01-12T07:25:51.266Z,100572.27
2023-01-12T10:34:08.144Z,100499.42
2023-01-12T10:36:36.578Z,100493.14
2023-01-12T10:39:04.811Z,100491.71
2023-01-12T10:41:35.214Z,100486.84
2023-01-12T10:44:16.129Z,100491.98
2023-01-12T10:46:43.228Z,100494.60
2023-01-12T10:49:23.947Z,100495.59
2023-01-12T10:51:58.747Z,100489.35
2023-01-12T10:54:28.128Z,100486.73
2023-01-12T10:57:25.631Z,100483.55
2023-01-12T10:59:54.804Z,100482.99
2023-01-12T11:02:24.247Z,100480.85
2023-01-12T11:04:52.612Z,100484.70
2023-01-12T11:07:26.580Z,100492.64
2023-01-12T11:09:57.559Z,100490.35
2023-01-12T11:12:31.224Z,100493.14
2023-01-12T11:15:03.546Z,100494.65
2023-01-12T11:17:52.556Z,100487.22
2023-01-12T11:20:48.047Z,100486.73
2023-01-12T11:23:28.375Z,100484.66
2023-01-12T11:25:55.769Z,100484.11
2023-01-12T11:28:29.315Z,100482.58
2023-01-12T11:31:08.919Z,100478.64
2023-01-12T11:33:43.239Z,100473.73
2023-01-12T11:36:15.771Z,100470.55
2023-01-12T11:39:00.969Z,100466.77
2023-01-12T11:42:04.432Z,100462.48
2023-01-12T11:44:34.588Z,100469.59
2023-01-12T11:47:13.620Z,100472.07
2023-01-12T11:49:40.541Z,100470.29
2023-01-12T11:52:09.024Z,100470.06
2023-01-12T11:54:36.561Z,100471.05
2023-01-12T11:57:09.267Z,100466.52
2023-01-12T11:59:51.483Z,100463.19
2023-01-12T12:02:30.243Z,100455.73
2023-01-12T12:05:06.478Z,100454.16
2023-01-12T12:08:02.593Z,100444.77
2023-01-12T12:10:32.540Z,100442.00
2023-01-12T12:13:02.475Z,100443.02
2023-01-12T12:15:47.902Z,100441.52
2023-01-12T12:18:23.868Z,100439.27
2023-01-12T12:21:00.515Z,100441.57
2023-01-12T12:23:53.416Z,100443.36
2023-01-12T12:26:31.249Z,100445.14
2023-01-12T12:29:37.998Z,100440.94
2023-01-12T12:32:38.443Z,100439.95
2023-01-12T12:35:07.102Z,100441.02
2023-01-12T12:37:58.919Z,100437.70
2023-01-12T12:40:56.491Z,100435.67
2023-01-12T12:43:49.238Z,100430.32
2023-01-12T18:34:19.529Z,100413.95
2023-01-12T18:36:46.587Z,100414.96
2023-01-12T18:39:18.548Z,100406.80
2023-01-12T18:42:04.106Z,100405.67
2023-01-12T18:44:33.967Z,100408.65
2023-01-12T18:47:20.144Z,100407.84
2023-01-12T18:49:49.929Z,100405.59
2023-01-12T18:52:55.920Z,100405.36
2023-01-12T18:55:23.006Z,100404.77
2023-01-12T18:57:51.174Z,100400.80
2023-01-12T19:00:18.397Z,100402.89
2023-01-12T19:02:45.484Z,100399.79
2023-01-12T19:05:18.305Z,100403.98
2023-01-12T19:08:00.254Z,100403.49
2023-01-12T19:10:28.197Z,100404.98
2023-01-12T19:13:15.089Z,100405.53
2023-01-12T19:16:00.987Z,100405.80
2023-01-12T19:18:28.308Z,100403.86
2023-01-12T19:21:15.125Z,100405.66
2023-01-12T19:24:00.716Z,100404.55
2023-01-12T19:26:46.319Z,100406.81
2023-01-12T19:29:13.173Z,100405.67
2023-01-12T19:31:40.226Z,100400.86
2023-01-12T19:34:07.210Z,100405.61
2023-01-12T19:36:34.375Z,100407.56
2023-01-12T19:39:05.837Z,100405.36
2023-01-12T19:41:52.720Z,100404.95
2023-01-12T19:44:38.414Z,100406.02
2023-01-12T19:47:05.285Z,100407.56
2023-01-12T19:49:32.423Z,100410.55
2023-01-12T19:52:05.723Z,100406.55
2023-01-12T19:54:36.075Z,100406.05
2023-01-12T19:57:02.949Z,100407.94
2023-01-12T19:59:29.843Z,100416.80
2023-01-12T20:01:56.778Z,100420.50
2023-01-12T20:04:23.667Z,100421.73
2023-01-12T20:06:53.304Z,100419.32
2023-01-12T20:09:20.279Z,100415.83
2023-01-12T20:11:52.822Z,100411.90
2023-01-12T20:14:20.016Z,100407.23
2023-01-12T20:16:47.361Z,100405.44
2023-01-12T20:19:14.478Z,100403.85
2023-01-12T20:21:41.308Z,100412.08
2023-01-12T20:24:08.260Z,100411.57
2023-01-12T20:26:35.308Z,100410.98
2023-01-12T20:29:11.503Z,100405.66
2023-01-12T20:31:38.428Z,100403.09
2023-01-12T20:34:05.463Z,100402.73
2023-01-12T20:36:32.367Z,100403.48
2023-01-12T20:38:59.326Z,100403.67
2023-01-12T20:41:29.332Z,100404.89
2023-01-12T20:43:56.263Z,100408.31
2023-01-12T20:46:23.391Z,100406.64
2023-01-12T20:48:50.215Z,100403.09
2023-01-12T20:51:17.221Z,100403.77
2023-01-12T20:53:44.300Z,100399.27
2023-01-12T20:56:11.573Z,100404.13
2023-01-12T20:58:38.601Z,100408.67
2023-01-12T21:01:10.475Z,100408.27
2023-01-12T21:03:37.511Z,100409.23
2023-01-12T21:06:09.024Z,100410.67
2023-01-12T21:08:37.438Z,100417.80
2023-01-12T21:11:04.567Z,100411.41
2023-01-12T21:13:31.686Z,100413.95
2023-01-12T21:15:59.960Z,100415.59
2023-01-12T21:18:27.765Z,100424.14
2023-01-12T21:20:54.745Z,100420.65
2023-01-12T21:23:21.666Z,100425.83
2023-01-12T21:25:50.447Z,100426.66
2023-01-12T21:28:18.371Z,100426.43
2023-01-12T21:30:45.403Z,100429.86
2023-01-12T21:33:15.472Z,100429.39
2023-01-12T21:35:44.611Z,100428.29
2023-01-12T21:38:11.527Z,100428.52
2023-01-12T21:40:38.467Z,100429.61
2023-01-12T21:43:08.347Z,100425.98
2023-01-12T21:45:39.931Z,100425.98
2023-01-12T21:48:07.532Z,100420.50
2023-01-12T21:50:34.827Z,100419.66
2023-01-12T21:53:02.849Z,100413.92
2023-01-12T21:55:30.276Z,100414.84
2023-01-12T21:57:57.128Z,100413.67
2023-01-12T22:00:24.231Z,100410.60
2023-01-12T22:02:51.856Z,100408.86
2023-01-12T22:05:19.303Z,100407.92
2023-01-12T22:07:47.970Z,100408.61
2023-01-12T22:10:22.191Z,100405.11
2023-01-12T22:12:55.795Z,100403.02
2023-01-12T22:15:23.171Z,100394.48
2023-01-12T22:17:51.510Z,100389.98
2023-01-12T22:20:18.526Z,100388.41
2023-01-12T22:22:45.624Z,100378.77
2023-01-12T22:25:13.640Z,100377.26
2023-01-12T22:27:43.449Z,100377.33
2023-01-12T22:30:13.127Z,100380.14
2023-01-12T22:32:41.528Z,100375.90
2023-01-12T22:35:08.909Z,100376.90
2023-01-12T22:37:36.656Z,100381.23
2023-01-12T22:40:05.215Z,100382.12
2023-01-12T22:42:50.832Z,100386.92
2023-01-12T22:45:17.860Z,100388.66
2023-01-12T22:47:48.613Z,100390.16
2023-01-12T22:50:15.934Z,100391.05
2023-01-12T22:52:42.784Z,100389.88
2023-01-12T22:55:09.754Z,100388.43
2023-01-12T22:57:36.656Z,100379.88
2023-01-12T23:00:04.644Z,100382.23
2023-01-12T23:02:50.372Z,100383.84
2023-01-12T23:05:17.917Z,100385.27
2023-01-12T23:07:44.855Z,100383.41
2023-01-12T23:10:11.697Z,100387.10
2023-01-12T23:12:38.921Z,100382.85
2023-01-12T23:15:06.852Z,100385.27
2023-01-12T23:17:33.743Z,100379.91
2023-01-12T23:20:00.639Z,100375.89
2023-01-12T23:22:30.562Z,100375.77
2023-01-12T23:24:57.298Z,100377.73
2023-01-12T23:27:24.139Z,100375.36
2023-01-12T23:29:51.063Z,100373.05
2023-01-12T23:32:18.228Z,100365.22
2023-01-12T23:34:45.058Z,100363.55
2023-01-12T23:37:11.919Z,100362.41
2023-01-12T23:39:38.763Z,100360.21
2023-01-12T23:42:05.696Z,100361.10
2023-01-12T23:44:32.606Z,100361.20
2023-01-12T23:47:03.073Z,100361.04
2023-01-12T23:49:29.904Z,100360.71
2023-01-12T23:51:56.755Z,100358.23
2023-01-12T23:54:23.577Z,100362.31
2023-01-12T23:56:52.430Z,100362.86
2023-01-12T23:59:19.646Z,100364.14
